Time;durP1;ratioP1;P1;durP2;ratioP2;P2;SDS_P1;SDS_P2;PMS_P1;PMS_P2;Temp;Humidity;BMP_temperature;BMP_pressure;BME280_temperature;BME280_humidity;BME280_pressure;Samples;Min_cycle;Max_cycle;Signal;HPM_P1;HPM_P2
2022/07/02 00:00:07;;;;;;;4.82;3.00;;;;;;;15.08;75.41;101986.38;4882076;29;20424;-68
2022/07/02 00:02:45;;;;;;;5.35;2.65;;;;;;;15.05;76.24;101975.94;4874623;29;20060;-72
2022/07/02 00:05:24;;;;;;;8.90;2.95;;;;;;;15.00;76.82;101986.69;4883797;29;20376;-70
2022/07/02 00:07:52;;;;;;;7.28;2.88;;;;;;;15.01;76.20;101985.63;4901562;29;20028;-67
2022/07/02 00:10:28;;;;;;;12.20;3.25;;;;;;;14.97;75.93;101985.25;4886583;29;20039;-68
2022/07/02 00:13:03;;;;;;;10.27;3.00;;;;;;;14.93;77.16;101986.78;4878651;29;20047;-69
2022/07/02 00:15:38;;;;;;;7.75;2.90;;;;;;;14.91;76.26;101980.69;4895918;29;20032;-67
2022/07/02 00:18:14;;;;;;;6.45;3.10;;;;;;;14.94;77.49;101982.16;4882448;29;20111;-68
2022/07/02 00:20:46;;;;;;;8.90;3.20;;;;;;;14.88;76.62;101989.31;4881660;29;20084;-67
2022/07/02 00:23:20;;;;;;;4.55;2.60;;;;;;;14.87;76.58;101982.22;4882790;29;20370;-69
2022/07/02 00:26:04;;;;;;;8.50;2.95;;;;;;;14.87;76.95;101976.75;4880956;29;20033;-68
2022/07/02 00:28:39;;;;;;;11.05;3.33;;;;;;;14.81;77.82;101969.50;4880751;29;20096;-67
2022/07/02 00:31:05;;;;;;;8.10;2.95;;;;;;;14.80;78.84;101976.84;4882090;29;20135;-68
2022/07/02 00:33:34;;;;;;;6.28;2.70;;;;;;;14.77;79.44;101982.75;4878886;29;20074;-68
2022/07/02 00:35:59;;;;;;;7.97;2.90;;;;;;;14.68;79.17;101981.38;4864288;29;20033;-68
2022/07/02 00:38:25;;;;;;;3.88;2.70;;;;;;;14.61;80.35;101978.69;4871945;29;20477;-68
2022/07/02 00:40:52;;;;;;;8.23;2.95;;;;;;;14.59;81.48;101982.69;4882545;29;20040;-69
2022/07/02 00:43:20;;;;;;;6.07;2.92;;;;;;;14.59;81.94;101988.13;4898435;29;20041;-68
2022/07/02 00:45:45;;;;;;;8.93;3.50;;;;;;;14.55;81.18;101985.00;4899265;29;20040;-68
2022/07/02 00:48:13;;;;;;;3.72;2.63;;;;;;;14.58;82.04;101981.84;4882731;29;20028;-68
2022/07/02 00:50:38;;;;;;;5.70;2.70;;;;;;;14.59;82.88;101983.50;4890417;29;20033;-67
2022/07/02 00:53:04;;;;;;;6.03;3.00;;;;;;;14.56;82.68;101983.97;4898676;29;20048;-68
2022/07/02 00:55:29;;;;;;;6.18;3.08;;;;;;;14.56;82.53;101983.97;4899046;29;20029;-68
2022/07/02 00:57:55;;;;;;;5.60;2.90;;;;;;;14.53;82.99;101979.78;4897547;29;20228;-68
2022/07/02 01:00:20;;;;;;;6.85;2.80;;;;;;;14.49;82.42;101975.00;4899014;29;20036;-68
2022/07/02 01:02:47;;;;;;;7.78;2.65;;;;;;;14.46;83.02;101981.75;4893708;29;20048;-67
2022/07/02 01:05:19;;;;;;;8.88;2.50;;;;;;;14.43;83.12;101978.63;4897870;29;20116;-68
2022/07/02 01:07:46;;;;;;;7.03;2.83;;;;;;;14.42;84.11;101976.94;4881194;29;20450;-68
2022/07/02 01:10:16;;;;;;;5.65;2.83;;;;;;;14.38;84.20;101976.56;4898868;29;20036;-68
2022/07/02 01:12:44;;;;;;;6.85;2.65;;;;;;;14.35;85.05;101972.41;4881127;29;20469;-68
2022/07/02 01:15:10;;;;;;;9.95;2.78;;;;;;;14.41;84.77;101969.88;4898693;29;20037;-68
2022/07/02 01:17:35;;;;;;;6.65;2.55;;;;;;;14.41;84.51;101962.50;4897416;29;20044;-67
2022/07/02 01:20:02;;;;;;;9.07;2.75;;;;;;;14.39;84.98;101967.38;4898857;29;20487;-68
2022/07/02 01:22:38;;;;;;;6.72;2.58;;;;;;;14.38;84.91;101970.31;4898660;29;20475;-68
2022/07/02 01:25:05;;;;;;;7.72;2.78;;;;;;;14.33;84.04;101969.06;4881270;29;20519;-68
2022/07/02 01:27:30;;;;;;;6.88;2.50;;;;;;;14.32;85.85;101972.03;4908028;29;20043;-67
2022/07/02 01:29:55;;;;;;;11.43;2.53;;;;;;;14.24;85.71;101959.53;4917093;29;20048;-68
2022/07/02 01:32:21;;;;;;;4.88;2.13;;;;;;;14.33;85.55;101969.06;4915660;29;20485;-67
2022/07/02 01:34:49;;;;;;;5.22;2.35;;;;;;;14.28;84.53;101968.94;4896970;29;20044;-67
2022/07/02 01:37:17;;;;;;;6.78;2.47;;;;;;;14.27;86.23;101964.53;4881724;29;20032;-68
2022/07/02 01:39:44;;;;;;;8.30;2.63;;;;;;;14.27;86.93;101969.97;4880763;29;20115;-67
2022/07/02 01:42:10;;;;;;;6.30;2.25;;;;;;;14.28;87.19;101966.19;4881587;29;20040;-67
2022/07/02 01:44:37;;;;;;;6.38;2.35;;;;;;;14.24;87.82;101964.97;4896522;29;20040;-67
2022/07/02 01:47:04;;;;;;;3.45;2.53;;;;;;;14.25;87.61;101976.69;4897100;29;20028;-67
2022/07/02 01:49:30;;;;;;;5.30;2.20;;;;;;;14.25;88.00;101971.25;4899117;29;20040;-68
2022/07/02 01:51:55;;;;;;;8.55;2.55;;;;;;;14.25;87.68;101969.38;4899924;29;20391;-67
2022/07/02 01:54:21;;;;;;;7.57;2.50;;;;;;;14.27;87.79;101975.41;4917064;29;20468;-67
2022/07/02 01:56:46;;;;;;;9.50;2.50;;;;;;;14.25;86.49;101961.22;4916869;29;20039;-68
2022/07/02 01:59:13;;;;;;;8.27;2.40;;;;;;;14.18;87.49;101966.69;4890467;29;20033;-67
2022/07/02 02:01:39;;;;;;;6.80;2.63;;;;;;;14.15;85.41;101964.41;4882560;29;20084;-68
2022/07/02 02:04:04;;;;;;;8.82;2.70;;;;;;;14.14;87.47;101964.63;4897810;29;20033;-68
2022/07/02 02:06:30;;;;;;;7.82;2.60;;;;;;;14.14;87.85;101967.34;4897693;29;20072;-68
2022/07/02 02:08:55;;;;;;;10.48;2.42;;;;;;;14.08;87.16;101962.78;4913514;29;20036;-68
2022/07/02 02:11:21;;;;;;;5.68;2.30;;;;;;;14.12;87.63;101966.75;4904370;29;20037;-67
2022/07/02 02:13:46;;;;;;;8.52;2.42;;;;;;;14.07;88.79;101966.56;4897428;29;20035;-68
2022/07/02 02:16:11;;;;;;;5.43;2.42;;;;;;;14.10;89.76;101964.25;4897448;29;20033;-68
2022/07/02 02:18:36;;;;;;;7.78;2.63;;;;;;;14.16;88.21;101962.50;4897670;29;20397;-67
2022/07/02 02:21:02;;;;;;;6.13;2.50;;;;;;;14.13;89.11;101957.50;4895714;29;20028;-68
2022/07/02 02:23:27;;;;;;;4.10;2.38;;;;;;;14.15;87.95;101955.41;4896044;29;20369;-67
2022/07/02 02:25:52;;;;;;;4.72;2.40;;;;;;;14.15;88.74;101956.25;4896840;29;20079;-66
2022/07/02 02:28:18;;;;;;;6.07;2.30;;;;;;;14.12;87.56;101956.69;4893349;29;20046;-68
2022/07/02 02:30:43;;;;;;;5.03;2.75;;;;;;;14.15;88.71;101960.88;4904650;29;20131;-68
2022/07/02 02:33:08;;;;;;;5.82;2.63;;;;;;;14.10;89.40;101961.53;4897641;29;20071;-67
2022/07/02 02:35:34;;;;;;;5.80;2.63;;;;;;;14.12;89.06;101966.75;4896403;29;20041;-70
2022/07/02 02:37:59;;;;;;;6.88;2.70;;;;;;;14.12;90.38;101972.19;4880576;29;20128;-67
2022/07/02 02:40:24;;;;;;;4.43;2.50;;;;;;;14.18;87.24;101974.03;4896865;29;20029;-68
2022/07/02 02:42:50;;;;;;;7.45;3.05;;;;;;;14.17;85.25;101969.63;4897526;29;20091;-67
2022/07/02 02:45:15;;;;;;;10.10;3.03;;;;;;;14.16;89.21;101965.22;4896471;29;20160;-67
2022/07/02 02:47:41;;;;;;;8.32;3.13;;;;;;;14.18;86.59;101971.31;4895385;29;20060;-67
2022/07/02 02:50:06;;;;;;;11.75;3.00;;;;;;;14.20;85.71;101962.91;4895987;29;20480;-67
2022/07/02 02:52:32;;;;;;;8.98;2.95;;;;;;;14.22;86.24;101967.09;4896944;29;20040;-68
2022/07/02 02:54:57;;;;;;;8.82;2.97;;;;;;;14.25;86.36;101971.25;4896265;29;20119;-67
2022/07/02 02:57:23;;;;;;;4.70;2.78;;;;;;;14.24;87.30;101967.69;4896464;29;20040;-70
2022/07/02 02:59:48;;;;;;;8.77;2.85;;;;;;;14.25;86.59;101971.25;4880271;29;20035;-70
2022/07/02 03:02:13;;;;;;;7.05;2.63;;;;;;;14.21;85.78;101970.88;4892091;29;20052;-70
2022/07/02 03:04:38;;;;;;;6.00;2.67;;;;;;;14.22;84.13;101964.38;4897401;29;20029;-69
2022/07/02 03:07:04;;;;;;;7.90;3.30;;;;;;;14.15;83.77;101966.31;4900390;29;20067;-69
2022/07/02 03:09:29;;;;;;;5.10;2.58;;;;;;;14.24;85.29;101970.41;4898107;29;20025;-69
2022/07/02 03:11:55;;;;;;;8.13;2.90;;;;;;;14.18;85.09;101974.03;4901190;29;20040;-69
2022/07/02 03:14:20;;;;;;;7.13;2.60;;;;;;;14.15;84.66;101971.75;4899857;29;20058;-67
2022/07/02 03:16:45;;;;;;;6.45;3.10;;;;;;;14.15;85.92;101982.63;4900050;29;20387;-66
2022/07/02 03:19:11;;;;;;;6.57;2.67;;;;;;;14.11;85.16;101979.50;4901137;29;20036;-67
2022/07/02 03:21:36;;;;;;;6.60;2.80;;;;;;;14.08;86.69;101992.75;4899580;29;20043;-67
2022/07/02 03:24:01;;;;;;;5.80;2.50;;;;;;;14.09;86.48;101994.41;4900694;29;20035;-67
2022/07/02 03:26:26;;;;;;;4.65;2.88;;;;;;;14.13;86.96;101988.31;4898618;29;20024;-68
2022/07/02 03:28:52;;;;;;;5.43;3.08;;;;;;;14.10;85.06;101993.34;4901043;29;20036;-68
2022/07/02 03:31:17;;;;;;;10.30;3.00;;;;;;;14.12;86.44;101989.34;4919234;29;20056;-68
2022/07/02 03:33:42;;;;;;;8.88;2.80;;;;;;;14.09;88.04;101994.41;4915315;29;20040;-68
2022/07/02 03:36:08;;;;;;;6.68;2.85;;;;;;;14.09;86.71;101994.41;4881807;29;20029;-67
2022/07/02 03:38:34;;;;;;;8.48;2.58;;;;;;;14.08;87.14;101998.19;4900464;29;20037;-67
2022/07/02 03:40:59;;;;;;;9.00;3.15;;;;;;;14.08;87.30;102003.63;4898476;29;20525;-67
2022/07/02 03:43:24;;;;;;;5.32;2.53;;;;;;;14.12;85.62;102002.13;4900625;29;20043;-68
2022/07/02 03:45:50;;;;;;;6.65;2.65;;;;;;;14.05;86.70;102004.06;4899299;29;20059;-67
2022/07/02 03:48:15;;;;;;;10.48;3.50;;;;;;;14.05;87.44;102012.22;4900453;29;20031;-68
2022/07/02 03:50:42;;;;;;;8.73;2.63;;;;;;;14.05;87.05;102002.16;4899300;29;20472;-68
2022/07/02 03:53:08;;;;;;;8.60;2.92;;;;;;;13.98;86.60;102004.94;4915139;29;20032;-68
2022/07/02 03:55:34;;;;;;;7.50;2.63;;;;;;;14.09;86.77;102003.41;4906458;29;20032;-68
2022/07/02 03:57:59;;;;;;;6.82;2.55;;;;;;;14.08;86.63;102006.34;4900402;29;20044;-68
2022/07/02 04:00:24;;;;;;;6.38;2.88;;;;;;;14.14;83.22;102002.75;4881952;29;20039;-68
2022/07/02 04:02:49;;;;;;;5.22;2.50;;;;;;;14.16;83.04;102006.06;4880847;29;20049;-67
2022/07/02 04:05:15;;;;;;;11.05;2.92;;;;;;;14.15;85.73;102004.41;4899382;29;20036;-67
2022/07/02 04:07:40;;;;;;;7.68;2.50;;;;;;;14.17;85.83;102002.28;4899131;29;20549;-68
2022/07/02 04:10:06;;;;;;;9.02;3.05;;;;;;;14.14;82.67;102009.00;4899683;29;20130;-68
2022/07/02 04:12:32;;;;;;;6.35;2.75;;;;;;;14.13;82.89;102009.22;4899700;29;20138;-68
2022/07/02 04:14:58;;;;;;;7.15;2.97;;;;;;;14.10;84.05;102007.81;4905821;29;20224;-68
2022/07/02 04:17:23;;;;;;;9.85;3.28;;;;;;;14.12;84.47;102016.56;4909415;29;20043;-68
2022/07/02 04:19:49;;;;;;;7.50;2.90;;;;;;;14.12;83.28;102010.31;4898900;29;20039;-68
2022/07/02 04:22:14;;;;;;;6.35;3.15;;;;;;;14.12;84.38;102010.31;4897706;29;20040;-69
2022/07/02 04:24:39;;;;;;;6.22;2.80;;;;;;;14.15;86.29;102009.88;4900175;29;20461;-67
2022/07/02 04:27:05;;;;;;;10.85;3.10;;;;;;;14.21;84.56;102014.41;4898783;29;20052;-67
2022/07/02 04:29:30;;;;;;;10.05;3.22;;;;;;;14.17;82.92;102010.47;4899634;29;20029;-67
2022/07/02 04:31:55;;;;;;;6.82;2.97;;;;;;;14.21;83.31;102008.97;4898733;29;20116;-67
2022/07/02 04:34:21;;;;;;;8.38;3.20;;;;;;;14.26;84.34;102006.41;4899157;29;20059;-68
2022/07/02 04:36:46;;;;;;;7.28;2.92;;;;;;;14.24;85.34;102008.53;4902176;29;20039;-67
2022/07/02 04:39:11;;;;;;;7.88;3.03;;;;;;;14.28;85.42;102011.63;4910655;29;20086;-68
2022/07/02 04:41:37;;;;;;;8.88;3.25;;;;;;;14.30;83.51;102007.66;4918493;29;20438;-68
2022/07/02 04:44:02;;;;;;;10.85;3.08;;;;;;;14.35;83.04;102013.25;4900849;29;20033;-68
2022/07/02 04:46:27;;;;;;;8.55;3.70;;;;;;;14.42;82.72;102006.91;4899206;29;20028;-68
2022/07/02 04:48:52;;;;;;;7.03;2.95;;;;;;;14.45;82.62;102009.22;4898244;29;20037;-68
2022/07/02 04:51:18;;;;;;;10.50;3.03;;;;;;;14.49;82.41;102004.97;4907858;29;20035;-68
2022/07/02 04:53:44;;;;;;;6.78;3.05;;;;;;;14.51;81.95;102009.16;4898308;29;20028;-67
2022/07/02 04:56:09;;;;;;;9.73;2.95;;;;;;;14.51;81.24;102009.16;4899053;29;20036;-67
2022/07/02 04:58:35;;;;;;;10.95;3.08;;;;;;;14.49;81.17;102008.53;4898598;29;20047;-68
2022/07/02 05:01:00;;;;;;;9.35;3.65;;;;;;;14.52;81.00;102016.28;4895476;29;20051;-68
2022/07/02 05:03:25;;;;;;;6.28;2.75;;;;;;;14.54;82.34;102014.16;4898480;29;20060;-68
2022/07/02 05:05:51;;;;;;;8.10;3.42;;;;;;;14.60;80.27;102017.88;4898892;29;20076;-67
2022/07/02 05:08:18;;;;;;;4.95;2.90;;;;;;;14.62;80.01;102010.34;4897317;29;20044;-68
2022/07/02 05:10:43;;;;;;;9.73;3.28;;;;;;;14.68;80.90;102012.16;4897398;29;20130;-68
2022/07/02 05:13:08;;;;;;;5.35;2.90;;;;;;;14.68;79.31;102009.44;4898701;29;20067;-68
2022/07/02 05:15:34;;;;;;;7.43;3.45;;;;;;;14.71;81.56;102011.72;4898186;29;20043;-68
2022/07/02 05:17:59;;;;;;;6.25;3.55;;;;;;;14.78;78.96;102013.53;4898458;29;20036;-68
2022/07/02 05:20:25;;;;;;;7.15;2.83;;;;;;;14.79;78.70;102009.75;4896870;29;20044;-68
2022/07/02 05:22:50;;;;;;;6.65;3.03;;;;;;;14.82;78.01;102017.47;4896359;29;20036;-68
2022/07/02 05:25:15;;;;;;;5.72;3.22;;;;;;;14.83;77.56;102011.00;4897724;29;20119;-68
2022/07/02 05:27:41;;;;;;;6.32;3.05;;;;;;;14.89;77.82;102015.53;4898836;29;20028;-68
2022/07/02 05:30:06;;;;;;;4.40;2.90;;;;;;;14.89;77.73;102010.91;4890631;29;20188;-68
2022/07/02 05:32:32;;;;;;;9.00;3.05;;;;;;;14.96;77.55;102013.56;4896539;29;20037;-68
2022/07/02 05:34:57;;;;;;;7.10;2.63;;;;;;;15.02;77.58;102015.41;4896028;29;20088;-68
2022/07/02 05:37:22;;;;;;;6.38;2.83;;;;;;;15.07;75.84;102015.53;4913197;29;20131;-67
2022/07/02 05:39:47;;;;;;;6.30;2.50;;;;;;;15.13;76.50;102021.16;4882954;29;20045;-68
2022/07/02 05:42:13;;;;;;;5.50;2.20;;;;;;;15.19;75.91;102025.72;4898261;29;20025;-68
2022/07/02 05:44:38;;;;;;;7.18;2.25;;;;;;;15.26;75.91;102020.16;4897077;29;20464;-68
2022/07/02 05:47:03;;;;;;;4.13;2.40;;;;;;;15.32;75.29;102025.53;4897899;29;20039;-68
2022/07/02 05:49:29;;;;;;;7.47;2.45;;;;;;;15.32;74.89;102016.53;4887556;29;20041;-67
2022/07/02 05:51:54;;;;;;;4.75;2.50;;;;;;;15.40;76.12;102017.06;4893811;29;20036;-68
2022/07/02 05:54:19;;;;;;;7.78;2.25;;;;;;;15.47;74.32;102027.03;4897881;29;20064;-68
2022/07/02 05:56:45;;;;;;;6.15;2.40;;;;;;;15.49;73.86;102019.44;4881280;29;20060;-68
2022/07/02 05:59:10;;;;;;;10.23;3.15;;;;;;;15.50;72.53;102019.22;4896966;29;20041;-68
2022/07/02 06:01:35;;;;;;;4.55;2.00;;;;;;;15.54;72.06;102025.91;4894740;29;20104;-68
2022/07/02 06:04:01;;;;;;;7.32;2.35;;;;;;;15.60;70.94;102032.34;4897145;29;20373;-67
2022/07/02 06:09:10;;;;;;;8.15;1.90;;;;;;;15.68;71.62;102023.00;4893548;29;20120;-68
2022/07/02 06:11:35;;;;;;;4.28;1.90;;;;;;;15.76;71.25;102033.56;4881244;29;20081;-68
2022/07/02 06:14:00;;;;;;;6.97;2.47;;;;;;;15.82;72.16;102027.25;4896993;29;20527;-68
2022/07/02 06:16:27;;;;;;;6.50;1.80;;;;;;;15.91;71.79;102033.19;4897627;29;20042;-68
2022/07/02 06:18:53;;;;;;;7.72;2.00;;;;;;;15.98;71.66;102030.38;4896378;29;20392;-68
2022/07/02 06:21:18;;;;;;;5.10;2.00;;;;;;;16.01;69.95;102028.00;4894092;29;20048;-68
2022/07/02 06:23:43;;;;;;;5.75;1.90;;;;;;;16.08;68.96;102031.47;4896300;29;20088;-68
2022/07/02 06:26:09;;;;;;;6.70;2.17;;;;;;;16.15;68.06;102034.09;4896429;29;20485;-68
2022/07/02 06:28:34;;;;;;;4.28;1.50;;;;;;;16.25;68.59;102022.63;4880837;29;20695;-68
2022/07/02 06:31:08;;;;;;;5.90;1.70;;;;;;;16.39;68.75;102028.69;4884702;29;20116;-68
2022/07/02 06:33:43;;;;;;;3.95;1.50;;;;;;;16.39;63.00;102028.69;4876616;29;20536;-67
2022/07/02 06:36:21;;;;;;;3.40;1.40;;;;;;;16.41;62.38;102032.88;4877340;29;20043;-68
2022/07/02 06:38:46;;;;;;;3.28;1.20;;;;;;;16.39;62.56;102034.16;4878166;29;20377;-68
2022/07/02 06:42:18;;;;;;;2.67;1.17;;;;;;;16.38;62.13;102040.69;4879632;29;20088;-69
2022/07/02 06:43:59;;;;;;;3.78;1.40;;;;;;;16.39;62.73;102039.63;4896641;29;20400;-70
2022/07/02 06:46:25;;;;;;;2.80;1.10;;;;;;;16.43;62.45;102033.44;4893489;29;20032;-68
2022/07/02 06:48:50;;;;;;;3.95;1.20;;;;;;;16.50;62.40;102037.97;4877973;29;20043;-72
2022/07/02 06:51:15;;;;;;;3.65;1.15;;;;;;;16.53;62.54;102030.16;4879280;29;20036;-68
2022/07/02 06:53:41;;;;;;;2.97;1.08;;;;;;;16.58;61.48;102030.25;4897487;29;20041;-68
2022/07/02 06:56:07;;;;;;;4.15;1.27;;;;;;;16.62;60.62;102026.00;4896370;29;20570;-69
2022/07/02 06:58:32;;;;;;;3.95;1.80;;;;;;;16.71;62.38;102026.44;4897671;29;20044;-70
2022/07/02 07:00:58;;;;;;;2.78;1.00;;;;;;;16.70;59.95;102024.81;4892405;29;20078;-70
2022/07/02 07:03:23;;;;;;;2.72;0.82;;;;;;;16.69;56.99;102034.06;4896960;29;20081;-69
2022/07/02 07:05:48;;;;;;;3.50;1.17;;;;;;;16.65;57.36;102028.25;4870742;29;20085;-70
2022/07/02 07:08:14;;;;;;;2.45;0.93;;;;;;;16.70;58.58;102032.16;4895719;29;20028;-68
2022/07/02 07:10:40;;;;;;;1.60;0.77;;;;;;;16.76;58.14;102032.06;4896670;29;20055;-68
2022/07/02 07:13:05;;;;;;;2.80;0.85;;;;;;;16.83;58.91;102023.72;4891766;29;20056;-69
2022/07/02 07:15:31;;;;;;;2.72;0.88;;;;;;;16.88;59.35;102037.56;4878671;29;20041;-69
2022/07/02 07:17:56;;;;;;;3.25;1.10;;;;;;;16.92;58.21;102029.69;4893827;29;20044;-69
2022/07/02 07:20:27;;;;;;;1.67;0.80;;;;;;;16.98;59.06;102034.22;4893964;29;20068;-68
2022/07/02 07:22:53;;;;;;;1.80;0.77;;;;;;;17.02;58.39;102032.66;4896504;29;20033;-69
2022/07/02 07:25:19;;;;;;;4.10;0.95;;;;;;;17.07;58.51;102038.25;4893393;29;20454;-69
2022/07/02 07:27:44;;;;;;;3.75;0.90;;;;;;;17.17;59.05;102045.84;4895557;29;20056;-70
2022/07/02 07:30:10;;;;;;;2.53;1.15;;;;;;;17.23;58.20;102027.66;4911066;29;20044;-68
2022/07/02 07:32:35;;;;;;;3.90;0.90;;;;;;;17.25;57.85;102025.50;4916021;29;20040;-69
2022/07/02 07:35:00;;;;;;;2.80;1.17;;;;;;;17.35;59.61;102031.19;4870789;29;20033;-69
2022/07/02 07:37:26;;;;;;;2.72;0.98;;;;;;;17.43;58.71;102029.97;4880247;29;20043;-69
2022/07/02 07:39:51;;;;;;;3.63;1.00;;;;;;;17.54;59.67;102040.03;4896587;29;20072;-68
2022/07/02 07:42:16;;;;;;;3.67;1.40;;;;;;;17.56;57.86;102045.28;4896198;29;20032;-68
2022/07/02 07:44:41;;;;;;;2.30;0.90;;;;;;;17.58;59.21;102043.13;4895413;29;20576;-69
2022/07/02 07:47:07;;;;;;;1.98;0.90;;;;;;;17.61;59.52;102035.25;4896808;29;20032;-69
2022/07/02 07:49:32;;;;;;;2.15;0.95;;;;;;;17.71;58.62;102043.69;4889916;29;20059;-67
2022/07/02 07:51:57;;;;;;;3.45;1.08;;;;;;;17.77;57.82;102041.88;4878860;29;20412;-68
2022/07/02 07:54:23;;;;;;;5.07;1.55;;;;;;;17.81;56.84;102034.00;4893637;29;20036;-68
2022/07/02 07:56:48;;;;;;;4.60;0.90;;;;;;;17.80;55.86;102027.69;4878865;29;20033;-68
2022/07/02 07:59:13;;;;;;;6.25;1.10;;;;;;;17.89;58.49;102039.94;4897371;29;20036;-69
2022/07/02 08:01:39;;;;;;;3.22;1.00;;;;;;;17.93;59.41;102033.97;4895653;29;20096;-69
2022/07/02 08:04:04;;;;;;;6.45;1.10;;;;;;;17.92;55.90;102040.53;4900022;29;20032;-68
2022/07/02 08:06:29;;;;;;;2.42;0.90;;;;;;;17.94;56.74;102036.47;4898471;29;20053;-68
2022/07/02 08:08:55;;;;;;;2.67;1.08;;;;;;;17.94;59.02;102031.00;4899965;29;20041;-69
2022/07/02 08:11:20;;;;;;;4.10;1.00;;;;;;;18.01;57.30;102034.41;4879268;29;20037;-69
2022/07/02 08:13:45;;;;;;;5.28;1.10;;;;;;;18.04;55.89;102027.59;4899020;29;20040;-70
2022/07/02 08:16:11;;;;;;;2.72;1.00;;;;;;;18.08;57.87;102020.56;4897481;29;20052;-69
2022/07/02 08:18:36;;;;;;;4.63;1.30;;;;;;;18.14;57.87;102026.97;4893123;29;20119;-69
2022/07/02 08:21:02;;;;;;;3.33;1.15;;;;;;;18.15;56.52;102023.97;4914799;29;20054;-70
2022/07/02 08:23:27;;;;;;;16.02;1.45;;;;;;;18.22;57.72;102024.66;4898013;29;20047;-70
2022/07/02 08:25:54;;;;;;;6.38;1.33;;;;;;;18.24;56.35;102019.75;4899345;29;20028;-69
2022/07/02 08:28:20;;;;;;;2.90;1.10;;;;;;;18.30;55.67;102023.41;4899553;29;20168;-70
2022/07/02 08:30:46;;;;;;;4.65;1.17;;;;;;;18.33;56.06;102025.66;4898581;29;20481;-68
2022/07/02 08:33:14;;;;;;;5.10;1.13;;;;;;;18.32;55.50;102020.41;4899614;29;20038;-69
2022/07/02 08:35:39;;;;;;;2.50;1.00;;;;;;;18.40;57.31;102011.78;4896987;29;20048;-71
2022/07/02 08:38:04;;;;;;;2.03;0.90;;;;;;;18.42;56.52;102012.38;4892473;29;20041;-70
2022/07/02 08:40:30;;;;;;;3.85;1.10;;;;;;;18.43;56.57;102011.28;4896523;29;20037;-69
2022/07/02 08:42:58;;;;;;;3.90;1.38;;;;;;;18.62;58.06;102020.06;4895347;29;20028;-68
2022/07/02 08:45:52;;;;;;;2.65;1.02;;;;;;;18.63;57.32;102013.53;4897207;29;20510;-70
2022/07/02 08:48:20;;;;;;;6.70;1.08;;;;;;;18.64;56.81;102014.34;4889100;29;20120;-70
2022/07/02 08:50:47;;;;;;;4.43;1.30;;;;;;;18.70;57.85;102008.66;4880369;29;20403;-68
2022/07/02 08:53:13;;;;;;;2.13;1.02;;;;;;;18.75;56.48;102007.91;4880317;29;20070;-69
2022/07/02 08:55:40;;;;;;;3.17;1.13;;;;;;;18.78;56.86;102004.66;4880550;29;20117;-66
2022/07/02 08:58:06;;;;;;;3.88;1.27;;;;;;;18.89;58.57;102006.53;4881651;29;20046;-67
2022/07/02 09:00:31;;;;;;;3.65;0.82;;;;;;;18.89;56.84;102001.03;4878669;29;20036;-69
2022/07/02 09:02:58;;;;;;;5.30;1.10;;;;;;;18.98;57.87;101997.84;4879181;29;20056;-70
2022/07/02 09:05:25;;;;;;;5.75;1.25;;;;;;;19.02;56.84;102012.72;4863603;29;20385;-69
2022/07/02 09:07:51;;;;;;;3.25;1.17;;;;;;;19.11;57.03;102009.28;4880180;29;20108;-67
2022/07/02 09:10:19;;;;;;;4.75;1.25;;;;;;;19.15;56.53;102009.59;4879847;29;20039;-70
2022/07/02 09:12:47;;;;;;;5.32;1.27;;;;;;;19.21;56.83;102003.09;4871876;29;20072;-67
2022/07/02 09:15:14;;;;;;;3.42;1.02;;;;;;;19.19;55.83;101997.03;4874724;29;20037;-69
2022/07/02 09:17:43;;;;;;;5.88;1.40;;;;;;;19.22;56.71;101999.28;4892443;29;20100;-68
2022/07/02 09:20:11;;;;;;;4.18;1.38;;;;;;;19.26;56.07;101989.47;4880789;29;20037;-69
2022/07/02 09:22:49;;;;;;;4.35;1.13;;;;;;;19.42;58.03;101975.91;4879848;29;20041;-69
2022/07/02 09:25:20;;;;;;;4.88;1.40;;;;;;;19.43;56.52;101983.03;4878550;29;20120;-69
2022/07/02 09:27:47;;;;;;;5.03;1.40;;;;;;;19.48;55.75;101983.09;4879676;29;20415;-67
2022/07/02 09:30:16;;;;;;;2.97;1.20;;;;;;;19.52;55.23;101981.50;4878899;29;20072;-65
2022/07/02 09:32:44;;;;;;;6.78;1.48;;;;;;;19.55;55.54;101972.75;4888173;29;20100;-68
2022/07/02 09:35:21;;;;;;;1.85;0.77;;;;;;;19.58;54.93;101971.41;4879703;29;20044;-68
2022/07/02 09:37:49;;;;;;;2.72;1.15;;;;;;;19.74;54.09;101966.91;4879394;29;20385;-68
2022/07/02 09:40:17;;;;;;;2.67;1.10;;;;;;;19.75;54.25;101963.06;4894235;29;20040;-68
2022/07/02 09:42:53;;;;;;;3.85;1.10;;;;;;;19.83;55.31;101960.69;4863482;29;20497;-68
2022/07/02 09:45:29;;;;;;;4.22;0.98;;;;;;;19.90;54.01;101957.75;4877649;29;20040;-69
2022/07/02 09:48:04;;;;;;;4.50;1.33;;;;;;;19.89;52.99;101949.78;4877801;29;20037;-69
2022/07/02 09:50:38;;;;;;;4.45;1.02;;;;;;;19.89;54.83;101958.00;4877831;29;20052;-69
2022/07/02 09:53:03;;;;;;;3.88;0.88;;;;;;;19.93;54.20;101953.63;4862312;29;20552;-72
2022/07/02 09:55:31;;;;;;;3.78;0.77;;;;;;;20.04;54.86;101955.38;4861684;29;20121;-72
2022/07/02 09:57:59;;;;;;;4.43;1.13;;;;;;;20.14;54.54;101954.63;4868688;29;20060;-69
2022/07/02 10:00:26;;;;;;;3.05;1.10;;;;;;;20.09;53.04;101949.94;4886610;29;20111;-69
2022/07/02 10:02:54;;;;;;;4.20;1.30;;;;;;;20.10;53.49;101942.53;4876531;29;20569;-69
2022/07/02 10:05:26;;;;;;;4.68;1.35;;;;;;;20.19;52.97;101949.19;4877237;29;20097;-69
2022/07/02 10:07:54;;;;;;;4.50;1.25;;;;;;;20.20;54.28;101953.59;4862523;29;20393;-69
2022/07/02 10:10:27;;;;;;;4.18;1.40;;;;;;;20.17;54.65;101943.16;4879359;29;20037;-69
2022/07/02 10:12:55;;;;;;;5.47;1.10;;;;;;;20.20;53.63;101948.13;4879253;29;20450;-68
2022/07/02 10:15:23;;;;;;;2.13;1.10;;;;;;;20.32;53.48;101937.75;4878134;29;20057;-69
2022/07/02 10:17:53;;;;;;;4.38;1.20;;;;;;;20.38;52.21;101937.78;4897565;29;20472;-69
2022/07/02 10:20:20;;;;;;;2.83;0.98;;;;;;;20.51;54.09;101938.13;4880128;29;20128;-69
2022/07/02 10:22:45;;;;;;;4.53;1.17;;;;;;;20.39;53.06;101940.25;4897810;29;20051;-69
2022/07/02 10:25:12;;;;;;;5.90;1.40;;;;;;;20.33;52.80;101931.13;4897615;29;20461;-72
2022/07/02 10:27:37;;;;;;;2.72;0.90;;;;;;;20.32;51.54;101935.00;4897694;29;20083;-69
2022/07/02 10:30:03;;;;;;;4.18;1.05;;;;;;;20.34;51.87;101932.81;4894348;29;20072;-68
2022/07/02 10:32:59;;;;;;;3.10;1.17;;;;;;;20.32;52.33;101931.41;4877027;29;20045;-68
2022/07/02 10:35:24;;;;;;;2.85;0.70;;;;;;;20.44;51.54;101928.47;4878570;29;20459;-68
2022/07/02 10:37:57;;;;;;;4.43;1.10;;;;;;;20.53;51.18;101926.88;4878689;29;20037;-68
2022/07/02 10:40:23;;;;;;;3.58;1.23;;;;;;;20.65;49.46;101924.78;4878769;29;20033;-69
2022/07/02 10:42:50;;;;;;;3.95;0.88;;;;;;;20.77;49.15;101923.72;4878693;29;20044;-69
2022/07/02 10:45:20;;;;;;;2.53;0.90;;;;;;;20.81;47.91;101914.69;4872281;29;20048;-69
2022/07/02 10:48:00;;;;;;;3.45;0.95;;;;;;;20.80;49.35;101923.19;4859996;29;20037;-69
2022/07/02 10:50:37;;;;;;;3.88;0.70;;;;;;;20.92;50.81;101911.97;4865571;29;20119;-69
2022/07/02 10:53:15;;;;;;;4.63;0.90;;;;;;;21.18;51.02;101912.88;4877730;29;20627;-70
2022/07/02 10:55:42;;;;;;;4.40;1.10;;;;;;;21.21;46.97;101918.69;4897465;29;20116;-69
2022/07/02 10:58:16;;;;;;;4.88;0.90;;;;;;;21.31;48.65;101917.06;4897236;29;20108;-69
2022/07/02 11:00:42;;;;;;;3.90;1.10;;;;;;;21.32;48.88;101919.53;4876512;29;20022;-69
2022/07/02 11:03:20;;;;;;;4.15;0.85;;;;;;;21.35;48.68;101913.47;4878406;29;20056;-69
2022/07/02 11:06:01;;;;;;;2.67;1.02;;;;;;;21.31;49.07;101906.03;4878714;29;20461;-70
2022/07/02 11:08:45;;;;;;;3.22;0.65;;;;;;;21.49;49.28;101918.47;4878341;29;20033;-68
2022/07/02 11:11:13;;;;;;;4.00;0.98;;;;;;;21.59;45.47;101907.50;4878434;29;20025;-70
2022/07/02 11:13:48;;;;;;;1.73;0.70;;;;;;;21.75;46.51;101900.06;4887438;29;20516;-69
2022/07/02 11:16:41;;;;;;;3.63;0.73;;;;;;;21.85;46.71;101907.50;4884363;29;20056;-69
2022/07/02 11:19:24;;;;;;;2.50;1.08;;;;;;;21.91;45.80;101914.69;4876371;29;20101;-70
2022/07/02 11:21:51;;;;;;;1.35;0.52;;;;;;;22.02;44.91;101904.47;4878496;29;20088;-70
2022/07/02 11:24:19;;;;;;;3.72;0.70;;;;;;;22.26;46.93;101901.94;4878377;29;20037;-69
2022/07/02 11:26:45;;;;;;;2.20;0.50;;;;;;;22.39;43.99;101904.16;4878397;29;20041;-69